TimeEST,TemperatureF,Dew PointF,Humidity,Sea Level PressureIn,VisibilityMPH,Wind Direction,Wind SpeedMPH,Gust SpeedMPH,PrecipitationIn,Events,Conditions,WindDirDegrees,DateUTC
12:53 AM,39.0,28.0,65,30.18,10.0,South,8.1,-,N/A,,Scattered Clouds,190,2013-01-09 05:53:00
1:53 AM,41.0,30.0,65,30.16,10.0,SSW,9.2,-,N/A,,Overcast,200,2013-01-09 06:53:00
2:53 AM,43.0,30.9,62,30.16,10.0,SSW,11.5,20.7,N/A,,Overcast,200,2013-01-09 07:53:00
3:53 AM,45.0,30.9,58,30.16,10.0,SW,12.7,-,N/A,,Mostly Cloudy,220,2013-01-09 08:53:00
4:53 AM,44.1,30.9,60,30.16,10.0,SW,10.4,-,N/A,,Overcast,230,2013-01-09 09:53:00
5:53 AM,44.1,32.0,63,30.18,10.0,WSW,15.0,24.2,0.00,Rain,Light Rain,240,2013-01-09 10:53:00
6:53 AM,42.1,35.1,76,30.19,10.0,SW,12.7,20.7,0.03,Rain,Light Rain,220,2013-01-09 11:53:00
7:53 AM,42.1,35.1,76,30.24,10.0,SW,16.1,25.3,0.00,,Clear,230,2013-01-09 12:53:00
8:53 AM,41.0,35.1,79,30.27,7.0,WSW,10.4,-,N/A,,Clear,250,2013-01-09 13:53:00
9:53 AM,43.0,36.0,76,30.30,9.0,WSW,13.8,-,N/A,,Clear,240,2013-01-09 14:53:00
10:53 AM,44.1,36.0,73,30.32,10.0,West,13.8,20.7,N/A,,Clear,260,2013-01-09 15:53:00
11:53 AM,44.1,35.1,71,30.32,10.0,West,13.8,21.9,N/A,,Clear,260,2013-01-09 16:53:00
12:53 PM,45.0,34.0,65,30.30,10.0,West,13.8,-,N/A,,Clear,260,2013-01-09 17:53:00
1:53 PM,46.9,34.0,61,30.30,10.0,WSW,12.7,-,N/A,,Clear,250,2013-01-09 18:53:00
2:53 PM,48.0,32.0,54,30.33,10.0,West,11.5,18.4,N/A,,Clear,270,2013-01-09 19:53:00
3:53 PM,46.9,30.9,54,30.36,10.0,West,13.8,20.7,N/A,,Clear,260,2013-01-09 20:53:00
4:53 PM,45.0,32.0,60,30.38,10.0,West,12.7,-,N/A,,Clear,260,2013-01-09 21:53:00
5:53 PM,43.0,30.9,62,30.40,10.0,West,9.2,-,N/A,,Clear,260,2013-01-09 22:53:00
6:53 PM,41.0,30.9,67,30.43,10.0,West,6.9,-,N/A,,Clear,260,2013-01-09 23:53:00
7:53 PM,42.1,30.9,65,30.44,10.0,West,9.2,-,N/A,,Clear,260,2013-01-10 00:53:00
8:53 PM,41.0,30.0,65,30.45,10.0,WSW,6.9,-,N/A,,Clear,250,2013-01-10 01:53:00
9:53 PM,39.0,28.9,67,30.47,10.0,WSW,5.8,-,N/A,,Clear,240,2013-01-10 02:53:00
10:53 PM,37.9,28.0,68,30.49,10.0,SW,6.9,-,N/A,,Clear,230,2013-01-10 03:53:00
11:53 PM,34.0,27.0,75,30.51,10.0,Calm,Calm,-,N/A,,Clear,0,2013-01-10 04:53:00